sensor_id;sensor_type;location;lat;lon;timestamp;pressure;altitude;pressure_sealevel;temperature;humidity
28267;BME280;15525;45.568;5.448;2024-01-16T00:01:04;97626.22;;;6.25;60.62
28267;BME280;15525;45.568;5.448;2024-01-16T00:03:30;97633.31;;;6.46;60.56
28267;BME280;15525;45.568;5.448;2024-01-16T00:05:55;97626.72;;;6.53;60.27
28267;BME280;15525;45.568;5.448;2024-01-16T00:08:21;97634.16;;;6.51;60.03
28267;BME280;15525;45.568;5.448;2024-01-16T00:10:46;97630.16;;;6.49;60.10
28267;BME280;15525;45.568;5.448;2024-01-16T00:13:11;97639.47;;;6.51;59.80
28267;BME280;15525;45.568;5.448;2024-01-16T00:15:37;97637.50;;;6.42;60.30
28267;BME280;15525;45.568;5.448;2024-01-16T00:18:02;97635.91;;;6.41;60.43
28267;BME280;15525;45.568;5.448;2024-01-16T00:20:28;97629.50;;;6.37;60.37
28267;BME280;15525;45.568;5.448;2024-01-16T00:22:53;97630.75;;;6.29;60.48
28267;BME280;15525;45.568;5.448;2024-01-16T00:25:19;97615.91;;;6.33;60.53
28267;BME280;15525;45.568;5.448;2024-01-16T00:27:46;97612.16;;;6.29;60.51
28267;BME280;15525;45.568;5.448;2024-01-16T00:30:11;97608.75;;;6.34;60.42
28267;BME280;15525;45.568;5.448;2024-01-16T00:32:39;97605.56;;;6.37;60.49
28267;BME280;15525;45.568;5.448;2024-01-16T00:35:04;97603.94;;;6.31;60.23
28267;BME280;15525;45.568;5.448;2024-01-16T00:37:30;97607.81;;;6.18;60.23
28267;BME280;15525;45.568;5.448;2024-01-16T00:39:55;97608.94;;;6.22;60.44
28267;BME280;15525;45.568;5.448;2024-01-16T00:42:20;97601.00;;;6.27;60.19
28267;BME280;15525;45.568;5.448;2024-01-16T00:44:46;97599.28;;;6.16;60.25
28267;BME280;15525;45.568;5.448;2024-01-16T00:47:11;97584.66;;;6.14;60.34
28267;BME280;15525;45.568;5.448;2024-01-16T00:49:37;97589.25;;;6.23;60.23
28267;BME280;15525;45.568;5.448;2024-01-16T00:52:03;97590.31;;;6.22;60.03
28267;BME280;15525;45.568;5.448;2024-01-16T00:54:28;97593.84;;;6.01;60.24
28267;BME280;15525;45.568;5.448;2024-01-16T00:56:54;97603.28;;;6.19;60.04
28267;BME280;15525;45.568;5.448;2024-01-16T00:59:25;97601.28;;;6.31;60.13
28267;BME280;15525;45.568;5.448;2024-01-16T01:01:50;97605.00;;;6.30;60.04
28267;BME280;15525;45.568;5.448;2024-01-16T01:04:16;97608.59;;;6.45;59.85
28267;BME280;15525;45.568;5.448;2024-01-16T01:06:41;97616.28;;;6.47;59.37
28267;BME280;15525;45.568;5.448;2024-01-16T01:09:07;97618.38;;;6.40;59.51
28267;BME280;15525;45.568;5.448;2024-01-16T01:11:32;97613.91;;;6.19;59.54
28267;BME280;15525;45.568;5.448;2024-01-16T01:13:57;97617.69;;;6.23;59.82
28267;BME280;15525;45.568;5.448;2024-01-16T01:16:23;97613.31;;;6.38;59.58
28267;BME280;15525;45.568;5.448;2024-01-16T01:18:48;97611.28;;;6.50;59.38
28267;BME280;15525;45.568;5.448;2024-01-16T01:21:13;97604.59;;;6.43;59.29
28267;BME280;15525;45.568;5.448;2024-01-16T01:23:39;97605.78;;;6.57;59.07
28267;BME280;15525;45.568;5.448;2024-01-16T01:26:04;97607.41;;;6.63;58.86
28267;BME280;15525;45.568;5.448;2024-01-16T01:28:30;97608.53;;;6.72;58.87
28267;BME280;15525;45.568;5.448;2024-01-16T01:30:56;97595.03;;;6.47;59.17
28267;BME280;15525;45.568;5.448;2024-01-16T01:33:21;97595.47;;;6.34;59.26
28267;BME280;15525;45.568;5.448;2024-01-16T01:35:46;97606.50;;;6.21;59.23
28267;BME280;15525;45.568;5.448;2024-01-16T01:38:12;97612.19;;;6.34;59.40
28267;BME280;15525;45.568;5.448;2024-01-16T01:40:37;97610.69;;;6.43;59.26
28267;BME280;15525;45.568;5.448;2024-01-16T01:43:22;97618.47;;;6.50;58.90
28267;BME280;15525;45.568;5.448;2024-01-16T01:46:15;97639.97;;;6.48;59.08
28267;BME280;15525;45.568;5.448;2024-01-16T01:48:42;97619.19;;;6.40;59.14
28267;BME280;15525;45.568;5.448;2024-01-16T01:51:08;97624.13;;;6.32;59.25
28267;BME280;15525;45.568;5.448;2024-01-16T01:53:34;97630.56;;;6.36;59.17
28267;BME280;15525;45.568;5.448;2024-01-16T01:56:08;97628.22;;;6.13;59.73
28267;BME280;15525;45.568;5.448;2024-01-16T01:58:34;97629.69;;;6.30;59.39
28267;BME280;15525;45.568;5.448;2024-01-16T02:01:02;97643.81;;;6.31;59.45
28267;BME280;15525;45.568;5.448;2024-01-16T02:03:29;97635.34;;;6.34;59.50
28267;BME280;15525;45.568;5.448;2024-01-16T02:05:58;97636.31;;;6.28;59.33
28267;BME280;15525;45.568;5.448;2024-01-16T02:08:24;97638.41;;;6.21;58.84
28267;BME280;15525;45.568;5.448;2024-01-16T02:10:50;97640.19;;;6.15;59.60
28267;BME280;15525;45.568;5.448;2024-01-16T02:13:15;97642.59;;;6.17;59.46
28267;BME280;15525;45.568;5.448;2024-01-16T02:15:45;97637.78;;;6.14;59.56
28267;BME280;15525;45.568;5.448;2024-01-16T02:18:10;97636.47;;;6.16;59.55
28267;BME280;15525;45.568;5.448;2024-01-16T02:20:36;97630.44;;;6.21;59.40
28267;BME280;15525;45.568;5.448;2024-01-16T02:23:03;97620.59;;;6.21;59.33
28267;BME280;15525;45.568;5.448;2024-01-16T02:25:29;97631.41;;;6.15;59.37
28267;BME280;15525;45.568;5.448;2024-01-16T02:27:55;97632.84;;;6.01;59.67
28267;BME280;15525;45.568;5.448;2024-01-16T02:30:20;97634.09;;;5.93;59.87
28267;BME280;15525;45.568;5.448;2024-01-16T02:32:46;97621.69;;;5.77;60.12
28267;BME280;15525;45.568;5.448;2024-01-16T02:35:11;97634.09;;;5.72;60.33
28267;BME280;15525;45.568;5.448;2024-01-16T02:37:36;97621.38;;;5.74;60.29
28267;BME280;15525;45.568;5.448;2024-01-16T02:40:03;97621.88;;;5.71;60.16
28267;BME280;15525;45.568;5.448;2024-01-16T02:42:32;97620.34;;;5.75;60.12
28267;BME280;15525;45.568;5.448;2024-01-16T02:44:57;97620.00;;;5.88;59.99
28267;BME280;15525;45.568;5.448;2024-01-16T02:47:23;97615.94;;;6.07;59.92
28267;BME280;15525;45.568;5.448;2024-01-16T02:49:48;97606.91;;;6.08;59.91
28267;BME280;15525;45.568;5.448;2024-01-16T02:52:14;97610.69;;;6.12;59.76
28267;BME280;15525;45.568;5.448;2024-01-16T02:54:40;97600.00;;;6.07;59.65
28267;BME280;15525;45.568;5.448;2024-01-16T02:57:05;97602.41;;;6.08;59.58
28267;BME280;15525;45.568;5.448;2024-01-16T02:59:31;97599.53;;;6.15;59.68
28267;BME280;15525;45.568;5.448;2024-01-16T03:01:56;97602.09;;;6.05;58.99
28267;BME280;15525;45.568;5.448;2024-01-16T03:04:22;97600.53;;;6.09;59.14
28267;BME280;15525;45.568;5.448;2024-01-16T03:06:47;97586.03;;;6.21;59.25
28267;BME280;15525;45.568;5.448;2024-01-16T03:09:13;97589.97;;;6.14;59.02
28267;BME280;15525;45.568;5.448;2024-01-16T03:11:38;97589.25;;;6.23;59.03
28267;BME280;15525;45.568;5.448;2024-01-16T03:14:05;97585.25;;;6.21;58.85
28267;BME280;15525;45.568;5.448;2024-01-16T03:16:31;97597.69;;;6.15;58.94
28267;BME280;15525;45.568;5.448;2024-01-16T03:18:57;97589.25;;;5.97;59.12
28267;BME280;15525;45.568;5.448;2024-01-16T03:21:22;97589.72;;;5.89;59.48
28267;BME280;15525;45.568;5.448;2024-01-16T03:23:48;97581.25;;;5.70;59.90
28267;BME280;15525;45.568;5.448;2024-01-16T03:26:14;97580.81;;;5.52;60.24
28267;BME280;15525;45.568;5.448;2024-01-16T03:28:40;97572.91;;;5.57;59.98
28267;BME280;15525;45.568;5.448;2024-01-16T03:31:06;97585.69;;;5.65;60.08
28267;BME280;15525;45.568;5.448;2024-01-16T03:33:31;97584.44;;;5.67;59.82
28267;BME280;15525;45.568;5.448;2024-01-16T03:35:57;97583.81;;;5.82;59.99
28267;BME280;15525;45.568;5.448;2024-01-16T03:38:22;97584.75;;;5.97;59.89
28267;BME280;15525;45.568;5.448;2024-01-16T03:40:47;97594.09;;;6.00;59.26
28267;BME280;15525;45.568;5.448;2024-01-16T03:43:13;97585.28;;;5.73;59.94
28267;BME280;15525;45.568;5.448;2024-01-16T03:45:39;97580.00;;;5.78;59.96
28267;BME280;15525;45.568;5.448;2024-01-16T03:48:04;97569.03;;;5.43;60.31
28267;BME280;15525;45.568;5.448;2024-01-16T03:50:30;97572.31;;;5.55;60.10
28267;BME280;15525;45.568;5.448;2024-01-16T03:52:55;97567.59;;;5.57;60.53
28267;BME280;15525;45.568;5.448;2024-01-16T03:55:21;97568.94;;;5.81;60.11
28267;BME280;15525;45.568;5.448;2024-01-16T03:57:46;97562.81;;;5.80;59.85
28267;BME280;15525;45.568;5.448;2024-01-16T04:00:12;97542.53;;;5.74;59.69
28267;BME280;15525;45.568;5.448;2024-01-16T04:02:38;97549.94;;;5.94;59.98
28267;BME280;15525;45.568;5.448;2024-01-16T04:05:04;97553.06;;;6.17;59.54
28267;BME280;15525;45.568;5.448;2024-01-16T04:07:29;97547.81;;;5.96;59.51
28267;BME280;15525;45.568;5.448;2024-01-16T04:09:55;97541.78;;;6.00;59.73
28267;BME280;15525;45.568;5.448;2024-01-16T04:12:20;97547.81;;;5.96;59.01
28267;BME280;15525;45.568;5.448;2024-01-16T04:14:46;97548.78;;;5.85;59.55
28267;BME280;15525;45.568;5.448;2024-01-16T04:17:12;97533.22;;;5.72;59.74
28267;BME280;15525;45.568;5.448;2024-01-16T04:19:37;97541.44;;;5.70;59.43
28267;BME280;15525;45.568;5.448;2024-01-16T04:22:03;97545.25;;;5.79;59.75
28267;BME280;15525;45.568;5.448;2024-01-16T04:24:30;97536.38;;;5.69;59.78
28267;BME280;15525;45.568;5.448;2024-01-16T04:26:55;97536.03;;;5.60;59.88
28267;BME280;15525;45.568;5.448;2024-01-16T04:29:20;97533.41;;;5.87;60.00
28267;BME280;15525;45.568;5.448;2024-01-16T04:31:46;97522.16;;;5.80;59.67
28267;BME280;15525;45.568;5.448;2024-01-16T04:34:11;97512.16;;;5.87;59.87
28267;BME280;15525;45.568;5.448;2024-01-16T04:36:37;97497.19;;;6.07;59.75
28267;BME280;15525;45.568;5.448;2024-01-16T04:39:02;97501.69;;;6.02;59.32
28267;BME280;15525;45.568;5.448;2024-01-16T04:41:29;97499.56;;;6.04;59.27
28267;BME280;15525;45.568;5.448;2024-01-16T04:43:54;97502.75;;;6.06;59.42
28267;BME280;15525;45.568;5.448;2024-01-16T04:46:20;97501.19;;;6.10;59.47
28267;BME280;15525;45.568;5.448;2024-01-16T04:48:45;97501.53;;;5.87;59.08
28267;BME280;15525;45.568;5.448;2024-01-16T04:51:11;97507.06;;;5.80;59.49
28267;BME280;15525;45.568;5.448;2024-01-16T04:53:36;97491.38;;;5.79;59.46
28267;BME280;15525;45.568;5.448;2024-01-16T04:56:02;97480.81;;;5.84;59.60
28267;BME280;15525;45.568;5.448;2024-01-16T04:58:27;97488.81;;;5.89;59.55
28267;BME280;15525;45.568;5.448;2024-01-16T05:00:53;97492.88;;;5.96;59.32
28267;BME280;15525;45.568;5.448;2024-01-16T05:03:18;97498.06;;;5.81;59.36
28267;BME280;15525;45.568;5.448;2024-01-16T05:05:44;97496.28;;;5.65;59.94
28267;BME280;15525;45.568;5.448;2024-01-16T05:08:09;97503.41;;;5.65;60.05
28267;BME280;15525;45.568;5.448;2024-01-16T05:10:35;97508.25;;;5.68;60.23
28267;BME280;15525;45.568;5.448;2024-01-16T05:13:00;97503.91;;;5.83;59.99
28267;BME280;15525;45.568;5.448;2024-01-16T05:15:25;97499.19;;;5.90;59.63
28267;BME280;15525;45.568;5.448;2024-01-16T05:17:51;97492.91;;;5.75;59.94
28267;BME280;15525;45.568;5.448;2024-01-16T05:20:18;97488.06;;;5.93;59.95
28267;BME280;15525;45.568;5.448;2024-01-16T05:22:44;97493.56;;;5.87;59.52
28267;BME280;15525;45.568;5.448;2024-01-16T05:25:09;97493.91;;;5.90;59.98
28267;BME280;15525;45.568;5.448;2024-01-16T05:27:35;97486.66;;;5.86;59.48
28267;BME280;15525;45.568;5.448;2024-01-16T05:30:00;97491.00;;;5.70;59.89
28267;BME280;15525;45.568;5.448;2024-01-16T05:32:26;97495.56;;;5.75;60.05
28267;BME280;15525;45.568;5.448;2024-01-16T05:34:52;97496.09;;;5.77;60.27
28267;BME280;15525;45.568;5.448;2024-01-16T05:37:18;97480.88;;;5.89;60.37
28267;BME280;15525;45.568;5.448;2024-01-16T05:39:44;97478.53;;;5.97;60.14
28267;BME280;15525;45.568;5.448;2024-01-16T05:42:09;97478.50;;;5.92;59.80
28267;BME280;15525;45.568;5.448;2024-01-16T05:44:36;97479.66;;;5.75;60.05
28267;BME280;15525;45.568;5.448;2024-01-16T05:47:02;97487.56;;;5.70;60.28
28267;BME280;15525;45.568;5.448;2024-01-16T05:49:27;97485.94;;;5.69;60.44
28267;BME280;15525;45.568;5.448;2024-01-16T05:51:53;97493.16;;;5.73;60.39
28267;BME280;15525;45.568;5.448;2024-01-16T05:54:18;97507.09;;;5.59;60.73
28267;BME280;15525;45.568;5.448;2024-01-16T05:56:43;97496.38;;;5.49;60.67
28267;BME280;15525;45.568;5.448;2024-01-16T05:59:09;97502.16;;;5.46;60.88
28267;BME280;15525;45.568;5.448;2024-01-16T06:01:34;97500.09;;;5.48;60.81
28267;BME280;15525;45.568;5.448;2024-01-16T06:04:00;97501.19;;;5.52;60.99
28267;BME280;15525;45.568;5.448;2024-01-16T06:06:25;97498.94;;;5.39;61.07
28267;BME280;15525;45.568;5.448;2024-01-16T06:08:51;97510.59;;;5.38;61.26
28267;BME280;15525;45.568;5.448;2024-01-16T06:11:17;97496.66;;;5.26;61.42
28267;BME280;15525;45.568;5.448;2024-01-16T06:13:43;97508.91;;;5.32;61.58
28267;BME280;15525;45.568;5.448;2024-01-16T06:16:09;97503.38;;;5.33;61.43
28267;BME280;15525;45.568;5.448;2024-01-16T06:18:35;97496.28;;;5.39;61.22
28267;BME280;15525;45.568;5.448;2024-01-16T06:21:01;97496.84;;;5.46;61.36
28267;BME280;15525;45.568;5.448;2024-01-16T06:23:26;97486.25;;;5.46;60.90
28267;BME280;15525;45.568;5.448;2024-01-16T06:25:52;97485.22;;;5.47;61.01
28267;BME280;15525;45.568;5.448;2024-01-16T06:28:17;97478.25;;;5.41;60.87
28267;BME280;15525;45.568;5.448;2024-01-16T06:30:42;97471.44;;;5.50;60.92
28267;BME280;15525;45.568;5.448;2024-01-16T06:33:08;97463.59;;;5.65;60.92
28267;BME280;15525;45.568;5.448;2024-01-16T06:35:33;97455.75;;;5.75;60.68
28267;BME280;15525;45.568;5.448;2024-01-16T06:37:59;97477.09;;;5.85;60.28
28267;BME280;15525;45.568;5.448;2024-01-16T06:40:24;97470.50;;;5.87;60.41
28267;BME280;15525;45.568;5.448;2024-01-16T06:42:49;97469.06;;;5.80;60.52
28267;BME280;15525;45.568;5.448;2024-01-16T06:45:15;97476.22;;;5.79;60.67
28267;BME280;15525;45.568;5.448;2024-01-16T06:47:41;97476.09;;;5.91;60.25
28267;BME280;15525;45.568;5.448;2024-01-16T06:50:07;97467.16;;;5.75;60.61
28267;BME280;15525;45.568;5.448;2024-01-16T06:52:33;97470.72;;;5.86;60.56
28267;BME280;15525;45.568;5.448;2024-01-16T06:54:58;97457.53;;;5.96;60.48
28267;BME280;15525;45.568;5.448;2024-01-16T06:57:24;97476.50;;;6.09;60.27
28267;BME280;15525;45.568;5.448;2024-01-16T06:59:49;97470.31;;;5.99;59.91
28267;BME280;15525;45.568;5.448;2024-01-16T07:02:15;97478.38;;;6.14;60.19
28267;BME280;15525;45.568;5.448;2024-01-16T07:04:40;97474.69;;;6.15;59.96
28267;BME280;15525;45.568;5.448;2024-01-16T07:07:05;97479.78;;;6.21;59.80
28267;BME280;15525;45.568;5.448;2024-01-16T07:09:31;97488.59;;;6.27;59.91
28267;BME280;15525;45.568;5.448;2024-01-16T07:11:56;97483.28;;;6.27;59.85
28267;BME280;15525;45.568;5.448;2024-01-16T07:14:22;97490.53;;;6.36;59.91
28267;BME280;15525;45.568;5.448;2024-01-16T07:16:47;97482.03;;;6.39;59.50
28267;BME280;15525;45.568;5.448;2024-01-16T07:19:13;97490.19;;;6.28;59.67
28267;BME280;15525;45.568;5.448;2024-01-16T07:21:38;97490.19;;;6.28;60.01
28267;BME280;15525;45.568;5.448;2024-01-16T07:24:04;97499.50;;;6.30;59.61
28267;BME280;15525;45.568;5.448;2024-01-16T07:26:29;97494.75;;;6.32;59.89
28267;BME280;15525;45.568;5.448;2024-01-16T07:28:55;97494.78;;;6.37;59.77
28267;BME280;15525;45.568;5.448;2024-01-16T07:31:21;97503.28;;;6.39;59.76
28267;BME280;15525;45.568;5.448;2024-01-16T07:33:46;97504.38;;;6.43;59.88
28267;BME280;15525;45.568;5.448;2024-01-16T07:36:11;97491.44;;;6.52;59.82
28267;BME280;15525;45.568;5.448;2024-01-16T07:38:37;97499.66;;;6.50;59.87
28267;BME280;15525;45.568;5.448;2024-01-16T07:41:03;97477.06;;;6.53;59.83
28267;BME280;15525;45.568;5.448;2024-01-16T07:43:28;97484.78;;;6.54;59.67
28267;BME280;15525;45.568;5.448;2024-01-16T07:45:56;97476.03;;;6.59;59.74
28267;BME280;15525;45.568;5.448;2024-01-16T07:48:22;97472.88;;;6.62;59.78
28267;BME280;15525;45.568;5.448;2024-01-16T07:50:51;97482.47;;;6.68;59.55
28267;BME280;15525;45.568;5.448;2024-01-16T07:53:16;97475.03;;;6.70;59.68
28267;BME280;15525;45.568;5.448;2024-01-16T07:55:42;97472.38;;;6.70;59.84
28267;BME280;15525;45.568;5.448;2024-01-16T07:58:10;97467.03;;;6.70;59.98
28267;BME280;15525;45.568;5.448;2024-01-16T08:00:36;97458.25;;;6.59;59.61
28267;BME280;15525;45.568;5.448;2024-01-16T08:03:01;97444.63;;;6.51;59.94
28267;BME280;15525;45.568;5.448;2024-01-16T08:05:26;97456.06;;;6.51;60.13
28267;BME280;15525;45.568;5.448;2024-01-16T08:07:53;97444.09;;;6.49;60.02
28267;BME280;15525;45.568;5.448;2024-01-16T08:10:19;97460.59;;;6.56;59.85
28267;BME280;15525;45.568;5.448;2024-01-16T08:12:45;97457.97;;;6.61;60.03
28267;BME280;15525;45.568;5.448;2024-01-16T08:15:10;97451.59;;;6.57;59.85
28267;BME280;15525;45.568;5.448;2024-01-16T08:17:35;97447.84;;;6.53;60.36
28267;BME280;15525;45.568;5.448;2024-01-16T08:20:01;97459.81;;;6.55;60.12
28267;BME280;15525;45.568;5.448;2024-01-16T08:22:26;97458.75;;;6.56;59.98
28267;BME280;15525;45.568;5.448;2024-01-16T08:24:52;97456.38;;;6.60;60.40
28267;BME280;15525;45.568;5.448;2024-01-16T08:27:19;97449.38;;;6.44;60.12
28267;BME280;15525;45.568;5.448;2024-01-16T08:29:44;97446.72;;;6.44;60.42
28267;BME280;15525;45.568;5.448;2024-01-16T08:32:10;97446.03;;;6.63;60.47
28267;BME280;15525;45.568;5.448;2024-01-16T08:34:35;97466.00;;;6.71;60.36
28267;BME280;15525;45.568;5.448;2024-01-16T08:37:00;97472.91;;;6.67;60.50
28267;BME280;15525;45.568;5.448;2024-01-16T08:39:26;97482.75;;;6.71;59.81
28267;BME280;15525;45.568;5.448;2024-01-16T08:41:53;97474.78;;;6.71;60.25
28267;BME280;15525;45.568;5.448;2024-01-16T08:44:18;97486.03;;;6.88;59.84
28267;BME280;15525;45.568;5.448;2024-01-16T08:46:44;97479.91;;;6.88;60.23
28267;BME280;15525;45.568;5.448;2024-01-16T08:49:09;97489.28;;;7.00;59.96
28267;BME280;15525;45.568;5.448;2024-01-16T08:51:36;97494.31;;;6.97;59.74
28267;BME280;15525;45.568;5.448;2024-01-16T08:54:02;97488.47;;;6.95;59.72
28267;BME280;15525;45.568;5.448;2024-01-16T08:56:28;97487.63;;;6.89;59.88
28267;BME280;15525;45.568;5.448;2024-01-16T08:58:53;97492.25;;;7.09;60.12
28267;BME280;15525;45.568;5.448;2024-01-16T09:01:18;97484.69;;;6.86;59.93
28267;BME280;15525;45.568;5.448;2024-01-16T09:03:46;97507.59;;;6.97;59.82
28267;BME280;15525;45.568;5.448;2024-01-16T09:06:12;97522.31;;;7.09;59.62
28267;BME280;15525;45.568;5.448;2024-01-16T09:08:38;97517.22;;;6.98;59.85
28267;BME280;15525;45.568;5.448;2024-01-16T09:11:03;97530.00;;;7.06;59.96
28267;BME280;15525;45.568;5.448;2024-01-16T09:13:28;97525.22;;;7.08;59.90
28267;BME280;15525;45.568;5.448;2024-01-16T09:15:54;97506.91;;;7.16;59.84
28267;BME280;15525;45.568;5.448;2024-01-16T09:18:19;97505.06;;;7.22;60.16
28267;BME280;15525;45.568;5.448;2024-01-16T09:20:45;97501.84;;;7.15;59.84
28267;BME280;15525;45.568;5.448;2024-01-16T09:23:10;97501.19;;;6.88;59.81
28267;BME280;15525;45.568;5.448;2024-01-16T09:25:36;97505.91;;;6.71;60.08
28267;BME280;15525;45.568;5.448;2024-01-16T09:28:02;97502.16;;;6.72;60.55
28267;BME280;15525;45.568;5.448;2024-01-16T09:30:28;97511.34;;;6.96;60.28
28267;BME280;15525;45.568;5.448;2024-01-16T09:32:53;97501.28;;;7.03;60.17
28267;BME280;15525;45.568;5.448;2024-01-16T09:35:18;97509.31;;;7.23;60.15
28267;BME280;15525;45.568;5.448;2024-01-16T09:37:44;97506.72;;;7.38;59.86
28267;BME280;15525;45.568;5.448;2024-01-16T09:40:10;97501.94;;;7.40;59.71
28267;BME280;15525;45.568;5.448;2024-01-16T09:42:36;97510.38;;;7.17;59.67
28267;BME280;15525;45.568;5.448;2024-01-16T09:45:01;97519.16;;;7.22;60.21
28267;BME280;15525;45.568;5.448;2024-01-16T09:47:30;97520.00;;;7.33;60.35
28267;BME280;15525;45.568;5.448;2024-01-16T09:49:59;97522.16;;;7.41;59.79
28267;BME280;15525;45.568;5.448;2024-01-16T09:52:25;97537.91;;;7.47;60.03
28267;BME280;15525;45.568;5.448;2024-01-16T09:54:50;97523.28;;;7.65;60.04
28267;BME280;15525;45.568;5.448;2024-01-16T09:57:18;97536.34;;;7.71;59.55
28267;BME280;15525;45.568;5.448;2024-01-16T09:59:48;97535.03;;;7.69;59.57
28267;BME280;15525;45.568;5.448;2024-01-16T10:02:14;97513.97;;;7.62;59.54
28267;BME280;15525;45.568;5.448;2024-01-16T10:04:41;97517.69;;;7.61;59.49
28267;BME280;15525;45.568;5.448;2024-01-16T10:07:08;97533.44;;;7.78;59.82
28267;BME280;15525;45.568;5.448;2024-01-16T10:09:35;97518.03;;;7.90;59.94
28267;BME280;15525;45.568;5.448;2024-01-16T10:12:01;97524.69;;;7.97;59.16
28267;BME280;15525;45.568;5.448;2024-01-16T10:14:27;97526.53;;;7.92;59.37
28267;BME280;15525;45.568;5.448;2024-01-16T10:17:03;97522.81;;;7.88;59.34
28267;BME280;15525;45.568;5.448;2024-01-16T10:19:31;97528.44;;;8.06;59.56
28267;BME280;15525;45.568;5.448;2024-01-16T10:22:04;97509.78;;;8.16;59.71
28267;BME280;15525;45.568;5.448;2024-01-16T10:24:30;97506.31;;;8.21;59.53
28267;BME280;15525;45.568;5.448;2024-01-16T10:27:02;97488.16;;;7.78;59.28
28267;BME280;15525;45.568;5.448;2024-01-16T10:29:28;97491.88;;;7.67;59.77
28267;BME280;15525;45.568;5.448;2024-01-16T10:31:55;97490.31;;;7.81;59.63
28267;BME280;15525;45.568;5.448;2024-01-16T10:34:22;97476.72;;;7.82;59.32
28267;BME280;15525;45.568;5.448;2024-01-16T10:36:57;97479.13;;;7.94;59.62
28267;BME280;15525;45.568;5.448;2024-01-16T10:39:23;97481.25;;;8.02;59.58
28267;BME280;15525;45.568;5.448;2024-01-16T10:41:56;97466.59;;;7.99;59.99
28267;BME280;15525;45.568;5.448;2024-01-16T10:44:21;97486.56;;;7.92;59.94
28267;BME280;15525;45.568;5.448;2024-01-16T10:46:47;97483.38;;;8.05;59.76
28267;BME280;15525;45.568;5.448;2024-01-16T10:49:12;97489.25;;;7.97;59.73
28267;BME280;15525;45.568;5.448;2024-01-16T10:51:38;97486.56;;;7.92;59.12
28267;BME280;15525;45.568;5.448;2024-01-16T10:54:05;97487.38;;;7.82;59.54
28267;BME280;15525;45.568;5.448;2024-01-16T10:56:31;97480.72;;;7.95;59.95
28267;BME280;15525;45.568;5.448;2024-01-16T10:59:13;97469.00;;;8.11;59.65
28267;BME280;15525;45.568;5.448;2024-01-16T11:01:43;97471.16;;;8.24;59.66
28267;BME280;15525;45.568;5.448;2024-01-16T11:04:11;97467.69;;;8.33;59.06
28267;BME280;15525;45.568;5.448;2024-01-16T11:06:38;97468.47;;;8.04;59.11
28267;BME280;15525;45.568;5.448;2024-01-16T11:09:05;97463.66;;;8.06;59.28
28267;BME280;15525;45.568;5.448;2024-01-16T11:11:33;97464.47;;;8.31;60.13
28267;BME280;15525;45.568;5.448;2024-01-16T11:14:00;97442.59;;;8.49;59.90
28267;BME280;15525;45.568;5.448;2024-01-16T11:16:28;97457.22;;;8.67;59.58
28267;BME280;15525;45.568;5.448;2024-01-16T11:18:56;97456.69;;;8.60;59.04
28267;BME280;15525;45.568;5.448;2024-01-16T11:21:22;97458.25;;;8.71;58.87
28267;BME280;15525;45.568;5.448;2024-01-16T11:23:48;97432.63;;;8.75;59.14
28267;BME280;15525;45.568;5.448;2024-01-16T11:26:33;97434.75;;;8.83;59.10
28267;BME280;15525;45.568;5.448;2024-01-16T11:31:56;97432.03;;;8.93;58.75
28267;BME280;15525;45.568;5.448;2024-01-16T11:37:25;97426.47;;;8.89;58.85
28267;BME280;15525;45.568;5.448;2024-01-16T11:42:43;97418.38;;;9.04;58.73
28267;BME280;15525;45.568;5.448;2024-01-16T11:48:14;97406.34;;;9.07;58.81
28267;BME280;15525;45.568;5.448;2024-01-16T11:50:41;97403.63;;;9.17;58.93
28267;BME280;15525;45.568;5.448;2024-01-16T11:53:07;97407.31;;;9.26;58.09
28267;BME280;15525;45.568;5.448;2024-01-16T11:55:34;97393.97;;;9.31;58.27
28267;BME280;15525;45.568;5.448;2024-01-16T12:00:32;97401.34;;;9.39;58.42
28267;BME280;15525;45.568;5.448;2024-01-16T12:03:02;97394.19;;;9.34;58.34
28267;BME280;15525;45.568;5.448;2024-01-16T12:05:31;97400.06;;;9.31;58.29
28267;BME280;15525;45.568;5.448;2024-01-16T12:07:57;97391.44;;;9.44;58.23
28267;BME280;15525;45.568;5.448;2024-01-16T12:10:23;97382.59;;;9.54;58.52
28267;BME280;15525;45.568;5.448;2024-01-16T12:12:50;97384.00;;;9.75;58.17
28267;BME280;15525;45.568;5.448;2024-01-16T12:15:17;97369.56;;;9.76;58.56
28267;BME280;15525;45.568;5.448;2024-01-16T12:17:57;97363.75;;;9.69;58.21
28267;BME280;15525;45.568;5.448;2024-01-16T12:20:24;97365.66;;;9.63;58.05
28267;BME280;15525;45.568;5.448;2024-01-16T12:23:17;97365.63;;;9.68;58.05
28267;BME280;15525;45.568;5.448;2024-01-16T12:25:43;97356.28;;;9.66;58.02
28267;BME280;15525;45.568;5.448;2024-01-16T12:28:09;97347.44;;;9.70;57.81
28267;BME280;15525;45.568;5.448;2024-01-16T12:30:38;97349.59;;;9.68;58.06
28267;BME280;15525;45.568;5.448;2024-01-16T12:33:11;97356.56;;;9.64;58.15
28267;BME280;15525;45.568;5.448;2024-01-16T12:35:41;97345.09;;;9.64;57.88
28267;BME280;15525;45.568;5.448;2024-01-16T12:38:08;97341.03;;;9.71;58.71
28267;BME280;15525;45.568;5.448;2024-01-16T12:40:35;97335.44;;;9.68;58.06
28267;BME280;15525;45.568;5.448;2024-01-16T12:43:05;97330.09;;;9.68;58.20
28267;BME280;15525;45.568;5.448;2024-01-16T12:45:31;97329.47;;;9.76;57.96
28267;BME280;15525;45.568;5.448;2024-01-16T12:47:57;97326.25;;;9.79;57.94
28267;BME280;15525;45.568;5.448;2024-01-16T12:50:25;97308.09;;;9.76;58.39
28267;BME280;15525;45.568;5.448;2024-01-16T12:53:21;97312.94;;;9.74;58.71
28267;BME280;15525;45.568;5.448;2024-01-16T12:55:57;97315.84;;;9.77;57.97
28267;BME280;15525;45.568;5.448;2024-01-16T12:58:23;97298.97;;;9.82;58.52
28267;BME280;15525;45.568;5.448;2024-01-16T13:00:51;97300.50;;;9.88;58.02
28267;BME280;15525;45.568;5.448;2024-01-16T13:03:20;97293.06;;;9.85;58.71
28267;BME280;15525;45.568;5.448;2024-01-16T13:05:54;97291.75;;;9.82;57.94
28267;BME280;15525;45.568;5.448;2024-01-16T13:08:20;97291.94;;;9.91;58.25
28267;BME280;15525;45.568;5.448;2024-01-16T13:10:46;97283.88;;;9.96;58.51
28267;BME280;15525;45.568;5.448;2024-01-16T13:15:43;97256.94;;;10.16;58.74
28267;BME280;15525;45.568;5.448;2024-01-16T13:18:22;97267.28;;;10.22;58.42
28267;BME280;15525;45.568;5.448;2024-01-16T13:20:52;97252.94;;;10.37;58.30
28267;BME280;15525;45.568;5.448;2024-01-16T13:23:19;97249.19;;;10.38;57.58